THA55 VVDN-VTBS
Flight info
| Callsign | THA55 |
|---|---|
| Flight time | N/A |
| Altitude | 36000 |
| Route | TANNA A1 UBL Y20 GRASO Y13 RUKSA EASTE1C |
| Aircraft | A20N/M-SDE2E3FGHIRWXY/LB1 |
Departure
| Time | 2026-04-27 02:12 |
|---|---|
| Airport | Da Nang International Airport (VVDN) |
Arrival
| Time | N/A |
|---|---|
| Airport | Suvarnabhumi Airport (VTBS) |
| Time | Latitude | Longitude | Altitude | Speed | Heading |
|---|---|---|---|---|---|
| 2026-04-27 01:56 | 16.05302 | 108.20204 | 32 ft | 0 kts | 82° |
| 2026-04-27 02:06 | 16.05299 | 108.20188 | 32 ft | 2 kts | 80° |
| 2026-04-27 02:06 | 16.05297 | 108.20171 | 30 ft | 2 kts | 78° |
| 2026-04-27 02:06 | 16.05293 | 108.20154 | 29 ft | 2 kts | 76° |
| 2026-04-27 02:07 | 16.05289 | 108.20138 | 31 ft | 2 kts | 70° |
| 2026-04-27 02:07 | 16.05282 | 108.20122 | 28 ft | 2 kts | 57° |
| 2026-04-27 02:07 | 16.05271 | 108.20109 | 30 ft | 2 kts | 17° |
| 2026-04-27 02:07 | 16.05259 | 108.20108 | 32 ft | 1 kts | 356° |
| 2026-04-27 02:08 | 16.05258 | 108.20108 | 32 ft | 0 kts | 355° |
| 2026-04-27 02:09 | 16.05262 | 108.20107 | 32 ft | 3 kts | 355° |
| 2026-04-27 02:09 | 16.05316 | 108.20090 | 32 ft | 14 kts | 341° |
| 2026-04-27 02:10 | 16.05455 | 108.20092 | 31 ft | 26 kts | 2° |
| 2026-04-27 02:10 | 16.05666 | 108.20066 | 31 ft | 35 kts | 353° |
| 2026-04-27 02:10 | 16.05802 | 108.20022 | 31 ft | 12 kts | 282° |
| 2026-04-27 02:10 | 16.05763 | 108.19937 | 30 ft | 14 kts | 252° |
| 2026-04-27 02:11 | 16.05717 | 108.19852 | 29 ft | 13 kts | 183° |
| 2026-04-27 02:11 | 16.05594 | 108.19861 | 29 ft | 36 kts | 172° |
| 2026-04-27 02:11 | 16.05080 | 108.19934 | 32 ft | 112 kts | 172° |
| 2026-04-27 02:11 | 16.04094 | 108.20051 | 73 ft | 168 kts | 174° |
| 2026-04-27 02:12 | 16.02834 | 108.20223 | 476 ft | 196 kts | 172° |
| 2026-04-27 02:12 | 16.01460 | 108.20445 | 1294 ft | 201 kts | 172° |
| 2026-04-27 02:12 | 16.00120 | 108.20598 | 2537 ft | 191 kts | 183° |
| 2026-04-27 02:12 | 15.98836 | 108.20187 | 3418 ft | 201 kts | 213° |
| 2026-04-27 02:13 | 15.97895 | 108.19036 | 4049 ft | 223 kts | 246° |
| 2026-04-27 02:13 | 15.97519 | 108.17386 | 4678 ft | 246 kts | 261° |
| 2026-04-27 02:13 | 15.97300 | 108.15542 | 5301 ft | 266 kts | 263° |
| 2026-04-27 02:13 | 15.97094 | 108.13605 | 6258 ft | 271 kts | 263° |
| 2026-04-27 02:14 | 15.96863 | 108.11652 | 7200 ft | 275 kts | 262° |
| 2026-04-27 02:14 | 15.96604 | 108.09667 | 8124 ft | 279 kts | 262° |
| 2026-04-27 02:14 | 15.96325 | 108.07662 | 9068 ft | 283 kts | 262° |
| 2026-04-27 02:14 | 15.96034 | 108.05624 | 9954 ft | 287 kts | 262° |
| 2026-04-27 02:15 | 15.95732 | 108.03518 | 10498 ft | 305 kts | 262° |
| 2026-04-27 02:15 | 15.95408 | 108.01248 | 10797 ft | 329 kts | 262° |
| 2026-04-27 02:15 | 15.95064 | 107.98841 | 11294 ft | 342 kts | 262° |
| 2026-04-27 02:15 | 15.94712 | 107.96379 | 12113 ft | 345 kts | 262° |
| 2026-04-27 02:16 | 15.94362 | 107.93933 | 12914 ft | 349 kts | 262° |
| 2026-04-27 02:16 | 15.93997 | 107.91385 | 13708 ft | 354 kts | 262° |
| 2026-04-27 02:16 | 15.93633 | 107.88842 | 14422 ft | 357 kts | 262° |
| 2026-04-27 02:16 | 15.93241 | 107.86109 | 15200 ft | 360 kts | 262° |
| 2026-04-27 02:17 | 15.92497 | 107.80916 | 16585 ft | 367 kts | 262° |
| 2026-04-27 02:17 | 15.91738 | 107.75631 | 17929 ft | 373 kts | 262° |
| 2026-04-27 02:17 | 15.90964 | 107.70250 | 19086 ft | 380 kts | 262° |
| 2026-04-27 02:17 | 15.90033 | 107.64798 | 20194 ft | 386 kts | 255° |
| 2026-04-27 02:18 | 15.88472 | 107.59400 | 21241 ft | 393 kts | 254° |
| 2026-04-27 02:18 | 15.86900 | 107.53911 | 22304 ft | 400 kts | 254° |
| 2026-04-27 02:18 | 15.85298 | 107.48324 | 23349 ft | 406 kts | 254° |
| 2026-04-27 02:18 | 15.83669 | 107.42651 | 24262 ft | 412 kts | 254° |
| 2026-04-27 02:19 | 15.82022 | 107.36921 | 25093 ft | 418 kts | 254° |
| 2026-04-27 02:19 | 15.80347 | 107.31107 | 25947 ft | 422 kts | 254° |
| 2026-04-27 02:19 | 15.78655 | 107.25237 | 26807 ft | 427 kts | 254° |
| 2026-04-27 02:19 | 15.76940 | 107.19293 | 27573 ft | 432 kts | 254° |
| 2026-04-27 02:20 | 15.75568 | 107.13274 | 28323 ft | 436 kts | 258° |
| 2026-04-27 02:20 | 15.74221 | 107.07015 | 29062 ft | 441 kts | 258° |
| 2026-04-27 02:20 | 15.72886 | 107.00841 | 29740 ft | 446 kts | 258° |
| 2026-04-27 02:20 | 15.71521 | 106.94542 | 30389 ft | 449 kts | 258° |
| 2026-04-27 02:21 | 15.70140 | 106.88173 | 31061 ft | 453 kts | 258° |
| 2026-04-27 02:21 | 15.68757 | 106.81809 | 31930 ft | 450 kts | 258° |
| 2026-04-27 02:21 | 15.67388 | 106.75515 | 32808 ft | 446 kts | 258° |
| 2026-04-27 02:21 | 15.66024 | 106.69256 | 33624 ft | 443 kts | 258° |
| 2026-04-27 02:22 | 15.64667 | 106.63033 | 34379 ft | 439 kts | 258° |
| 2026-04-27 02:22 | 15.63322 | 106.56874 | 35084 ft | 435 kts | 258° |
| 2026-04-27 02:22 | 15.61985 | 106.50765 | 35710 ft | 433 kts | 258° |
| 2026-04-27 02:22 | 15.60659 | 106.44711 | 35887 ft | 429 kts | 258° |
| 2026-04-27 02:23 | 15.58003 | 106.32609 | 35927 ft | 430 kts | 258° |
| 2026-04-27 02:23 | 15.55359 | 106.20599 | 35927 ft | 431 kts | 258° |
| 2026-04-27 02:24 | 15.52683 | 106.08469 | 35923 ft | 431 kts | 258° |
| 2026-04-27 02:24 | 15.49996 | 105.96329 | 35919 ft | 432 kts | 258° |
| 2026-04-27 02:25 | 15.47293 | 105.84149 | 35920 ft | 433 kts | 258° |
| 2026-04-27 02:25 | 15.44581 | 105.71960 | 35918 ft | 434 kts | 258° |
| 2026-04-27 02:26 | 15.41860 | 105.59761 | 35917 ft | 434 kts | 258° |
| 2026-04-27 02:26 | 15.39557 | 105.49933 | 35914 ft | 435 kts | 257° |
| 2026-04-27 02:27 | 15.38123 | 105.43887 | 35911 ft | 435 kts | 257° |
| 2026-04-27 02:27 | 15.36683 | 105.37797 | 35916 ft | 435 kts | 257° |
| 2026-04-27 02:28 | 15.35241 | 105.31700 | 35915 ft | 436 kts | 257° |
| 2026-04-27 02:28 | 15.33796 | 105.25593 | 35915 ft | 436 kts | 257° |
| 2026-04-27 02:29 | 15.32348 | 105.19484 | 35920 ft | 437 kts | 257° |
| 2026-04-27 02:29 | 15.30897 | 105.13373 | 35934 ft | 437 kts | 257° |
| 2026-04-27 02:30 | 15.29443 | 105.07253 | 35943 ft | 438 kts | 257° |
| 2026-04-27 02:30 | 15.27985 | 105.01126 | 35953 ft | 438 kts | 257° |
| 2026-04-27 02:31 | 15.26522 | 104.94986 | 35962 ft | 439 kts | 257° |
| 2026-04-27 02:31 | 15.25056 | 104.88834 | 35964 ft | 440 kts | 258° |
| 2026-04-27 02:32 | 15.24186 | 104.82626 | 35967 ft | 439 kts | 266° |
| 2026-04-27 02:32 | 15.23683 | 104.76301 | 35967 ft | 440 kts | 266° |
| 2026-04-27 02:33 | 15.23163 | 104.69979 | 35962 ft | 440 kts | 266° |
| 2026-04-27 02:33 | 15.22641 | 104.63659 | 35953 ft | 441 kts | 266° |
| 2026-04-27 02:34 | 15.22121 | 104.57374 | 35946 ft | 441 kts | 266° |
| 2026-04-27 02:34 | 15.21593 | 104.51001 | 35938 ft | 441 kts | 266° |
| 2026-04-27 02:35 | 15.21069 | 104.44713 | 35936 ft | 441 kts | 266° |
| 2026-04-27 02:35 | 15.20541 | 104.38382 | 35935 ft | 440 kts | 266° |
| 2026-04-27 02:36 | 15.20011 | 104.32061 | 35934 ft | 440 kts | 266° |
| 2026-04-27 02:36 | 15.19484 | 104.25793 | 35933 ft | 439 kts | 266° |
| 2026-04-27 02:37 | 15.18953 | 104.19499 | 35927 ft | 439 kts | 266° |
| 2026-04-27 02:37 | 15.18421 | 104.13213 | 35926 ft | 438 kts | 266° |
| 2026-04-27 02:38 | 15.18068 | 104.09052 | 35922 ft | 437 kts | 266° |